sensor_id;sensor_type;location;lat;lon;timestamp;pressure;altitude;pressure_sealevel;temperature;humidity
51053;BME280;37093;37.716;-122.060;2023-07-29T00:01:10;99869.39;;;29.05;26.04
51053;BME280;37093;37.716;-122.060;2023-07-29T00:03:39;99869.20;;;28.93;26.09
51053;BME280;37093;37.716;-122.060;2023-07-29T00:06:09;99867.77;;;28.56;26.27
51053;BME280;37093;37.716;-122.060;2023-07-29T00:08:37;99868.54;;;29.30;25.12
51053;BME280;37093;37.716;-122.060;2023-07-29T00:11:06;99865.15;;;28.70;25.72
51053;BME280;37093;37.716;-122.060;2023-07-29T00:13:34;99861.12;;;29.10;25.44
51053;BME280;37093;37.716;-122.060;2023-07-29T00:16:03;99856.23;;;28.33;26.47
51053;BME280;37093;37.716;-122.060;2023-07-29T00:18:31;99851.16;;;28.14;26.69
51053;BME280;37093;37.716;-122.060;2023-07-29T00:20:59;99846.37;;;27.88;26.73
51053;BME280;37093;37.716;-122.060;2023-07-29T00:23:28;99846.04;;;28.52;25.71
51053;BME280;37093;37.716;-122.060;2023-07-29T00:25:57;99848.74;;;28.06;26.74
51053;BME280;37093;37.716;-122.060;2023-07-29T00:28:25;99844.55;;;28.09;26.10
51053;BME280;37093;37.716;-122.060;2023-07-29T00:30:53;99843.30;;;27.97;26.37
51053;BME280;37093;37.716;-122.060;2023-07-29T00:33:22;99845.25;;;27.50;26.90
51053;BME280;37093;37.716;-122.060;2023-07-29T00:35:51;99845.97;;;28.01;26.96
51053;BME280;37093;37.716;-122.060;2023-07-29T00:38:19;99849.63;;;28.54;25.91
51053;BME280;37093;37.716;-122.060;2023-07-29T00:40:48;99846.74;;;27.95;26.76
51053;BME280;37093;37.716;-122.060;2023-07-29T00:43:16;99853.29;;;27.64;27.62
51053;BME280;37093;37.716;-122.060;2023-07-29T00:45:45;99853.66;;;27.67;27.26
51053;BME280;37093;37.716;-122.060;2023-07-29T00:48:13;99855.20;;;27.63;27.08
51053;BME280;37093;37.716;-122.060;2023-07-29T00:50:42;99858.48;;;27.29;27.35
51053;BME280;37093;37.716;-122.060;2023-07-29T00:53:10;99859.79;;;26.62;28.18
51053;BME280;37093;37.716;-122.060;2023-07-29T00:55:38;99858.85;;;26.48;28.70
51053;BME280;37093;37.716;-122.060;2023-07-29T00:58:08;99857.84;;;26.97;28.13
51053;BME280;37093;37.716;-122.060;2023-07-29T01:00:36;99862.57;;;26.73;28.61
51053;BME280;37093;37.716;-122.060;2023-07-29T01:03:04;99863.58;;;26.87;28.41
51053;BME280;37093;37.716;-122.060;2023-07-29T01:05:50;99863.85;;;27.11;27.90
51053;BME280;37093;37.716;-122.060;2023-07-29T01:08:25;99866.27;;;27.00;28.36
51053;BME280;37093;37.716;-122.060;2023-07-29T01:11:03;99868.74;;;26.40;28.79
51053;BME280;37093;37.716;-122.060;2023-07-29T01:13:40;99865.19;;;26.70;28.44
51053;BME280;37093;37.716;-122.060;2023-07-29T01:16:17;99867.24;;;26.49;28.97
51053;BME280;37093;37.716;-122.060;2023-07-29T01:18:48;99860.91;;;26.78;28.85
51053;BME280;37093;37.716;-122.060;2023-07-29T01:21:18;99864.39;;;26.42;29.43
51053;BME280;37093;37.716;-122.060;2023-07-29T01:23:47;99860.13;;;26.22;29.53
51053;BME280;37093;37.716;-122.060;2023-07-29T01:26:19;99860.52;;;25.16;31.09
51053;BME280;37093;37.716;-122.060;2023-07-29T01:28:48;99865.11;;;26.20;30.57
51053;BME280;37093;37.716;-122.060;2023-07-29T01:31:19;99867.26;;;26.09;29.91
51053;BME280;37093;37.716;-122.060;2023-07-29T01:33:56;99865.71;;;25.56;30.31
51053;BME280;37093;37.716;-122.060;2023-07-29T01:36:29;99869.26;;;26.17;29.77
51053;BME280;37093;37.716;-122.060;2023-07-29T01:39:00;99869.89;;;25.29;29.97
51053;BME280;37093;37.716;-122.060;2023-07-29T01:41:30;99871.53;;;25.75;29.79
51053;BME280;37093;37.716;-122.060;2023-07-29T01:43:59;99876.30;;;25.63;29.44
51053;BME280;37093;37.716;-122.060;2023-07-29T01:46:27;99881.82;;;26.31;29.16
51053;BME280;37093;37.716;-122.060;2023-07-29T01:48:56;99891.00;;;26.25;29.07
51053;BME280;37093;37.716;-122.060;2023-07-29T01:51:24;99895.65;;;25.77;30.17
51053;BME280;37093;37.716;-122.060;2023-07-29T01:53:52;99901.79;;;25.23;30.85
51053;BME280;37093;37.716;-122.060;2023-07-29T01:56:21;99899.81;;;25.37;30.62
51053;BME280;37093;37.716;-122.060;2023-07-29T01:58:49;99902.74;;;25.54;30.19
51053;BME280;37093;37.716;-122.060;2023-07-29T02:01:18;99905.79;;;25.10;30.80
51053;BME280;37093;37.716;-122.060;2023-07-29T02:03:46;99905.20;;;25.63;30.47
51053;BME280;37093;37.716;-122.060;2023-07-29T02:06:14;99913.50;;;25.17;30.88
51053;BME280;37093;37.716;-122.060;2023-07-29T02:08:43;99915.19;;;25.18;31.35
51053;BME280;37093;37.716;-122.060;2023-07-29T02:11:11;99918.46;;;24.97;31.74
51053;BME280;37093;37.716;-122.060;2023-07-29T02:13:40;99917.79;;;24.34;32.62
51053;BME280;37093;37.716;-122.060;2023-07-29T02:16:08;99920.95;;;24.58;32.69
51053;BME280;37093;37.716;-122.060;2023-07-29T02:18:37;99926.09;;;24.58;32.45
51053;BME280;37093;37.716;-122.060;2023-07-29T02:21:05;99927.75;;;25.06;31.70
51053;BME280;37093;37.716;-122.060;2023-07-29T02:23:33;99927.68;;;24.88;31.66
51053;BME280;37093;37.716;-122.060;2023-07-29T02:26:02;99924.50;;;24.60;32.22
51053;BME280;37093;37.716;-122.060;2023-07-29T02:28:31;99928.28;;;24.72;31.99
51053;BME280;37093;37.716;-122.060;2023-07-29T02:31:17;99929.88;;;24.37;31.77
51053;BME280;37093;37.716;-122.060;2023-07-29T02:33:49;99925.12;;;24.67;31.98
51053;BME280;37093;37.716;-122.060;2023-07-29T02:36:18;99929.86;;;24.25;32.22
51053;BME280;37093;37.716;-122.060;2023-07-29T02:38:48;99929.04;;;23.59;32.35
51053;BME280;37093;37.716;-122.060;2023-07-29T02:41:16;99930.70;;;24.17;32.03
51053;BME280;37093;37.716;-122.060;2023-07-29T02:43:49;99931.91;;;23.96;31.85
51053;BME280;37093;37.716;-122.060;2023-07-29T02:46:19;99936.05;;;23.56;33.47
51053;BME280;37093;37.716;-122.060;2023-07-29T02:48:49;99934.36;;;22.92;33.90
51053;BME280;37093;37.716;-122.060;2023-07-29T02:51:17;99932.82;;;23.28;33.64
51053;BME280;37093;37.716;-122.060;2023-07-29T02:53:45;99928.52;;;23.43;33.74
51053;BME280;37093;37.716;-122.060;2023-07-29T02:56:14;99929.51;;;23.54;33.65
51053;BME280;37093;37.716;-122.060;2023-07-29T02:58:42;99932.56;;;23.60;33.86
51053;BME280;37093;37.716;-122.060;2023-07-29T03:01:11;99934.46;;;23.12;34.39
51053;BME280;37093;37.716;-122.060;2023-07-29T03:03:44;99930.10;;;23.44;33.96
51053;BME280;37093;37.716;-122.060;2023-07-29T03:06:15;99925.44;;;23.99;33.21
51053;BME280;37093;37.716;-122.060;2023-07-29T03:08:43;99922.54;;;23.85;33.27
51053;BME280;37093;37.716;-122.060;2023-07-29T03:11:15;99921.64;;;23.74;33.78
51053;BME280;37093;37.716;-122.060;2023-07-29T03:13:43;99923.51;;;23.64;33.88
51053;BME280;37093;37.716;-122.060;2023-07-29T03:16:13;99928.07;;;23.64;34.03
51053;BME280;37093;37.716;-122.060;2023-07-29T03:18:44;99932.11;;;23.68;33.97
51053;BME280;37093;37.716;-122.060;2023-07-29T03:21:12;99934.60;;;23.77;34.06
51053;BME280;37093;37.716;-122.060;2023-07-29T03:23:40;99939.27;;;24.23;33.64
51053;BME280;37093;37.716;-122.060;2023-07-29T03:26:10;99941.78;;;23.92;33.88
51053;BME280;37093;37.716;-122.060;2023-07-29T03:28:40;99946.36;;;23.18;34.98
51053;BME280;37093;37.716;-122.060;2023-07-29T03:31:08;99946.38;;;23.57;34.52
51053;BME280;37093;37.716;-122.060;2023-07-29T03:33:36;99955.50;;;23.73;34.65
51053;BME280;37093;37.716;-122.060;2023-07-29T03:36:06;99958.98;;;23.50;35.48
51053;BME280;37093;37.716;-122.060;2023-07-29T03:38:34;99958.50;;;22.94;36.14
51053;BME280;37093;37.716;-122.060;2023-07-29T03:41:04;99959.52;;;23.11;35.65
51053;BME280;37093;37.716;-122.060;2023-07-29T03:43:32;99960.39;;;22.87;35.66
51053;BME280;37093;37.716;-122.060;2023-07-29T03:46:01;99965.78;;;23.11;35.25
51053;BME280;37093;37.716;-122.060;2023-07-29T03:48:30;99972.92;;;23.30;35.27
51053;BME280;37093;37.716;-122.060;2023-07-29T03:50:58;99974.45;;;23.48;34.93
51053;BME280;37093;37.716;-122.060;2023-07-29T03:53:27;99973.99;;;22.88;35.97
51053;BME280;37093;37.716;-122.060;2023-07-29T03:55:55;99973.83;;;22.69;35.29
51053;BME280;37093;37.716;-122.060;2023-07-29T03:58:24;99979.29;;;22.07;36.45
51053;BME280;37093;37.716;-122.060;2023-07-29T04:00:52;99979.09;;;22.86;36.09
51053;BME280;37093;37.716;-122.060;2023-07-29T04:03:21;99983.23;;;22.97;35.92
51053;BME280;37093;37.716;-122.060;2023-07-29T04:05:49;99986.97;;;22.80;36.13
51053;BME280;37093;37.716;-122.060;2023-07-29T04:08:18;99991.85;;;22.70;36.38
51053;BME280;37093;37.716;-122.060;2023-07-29T04:10:47;99988.52;;;22.45;37.69
51053;BME280;37093;37.716;-122.060;2023-07-29T04:13:15;99993.63;;;21.08;39.95
51053;BME280;37093;37.716;-122.060;2023-07-29T04:15:44;99996.90;;;21.33;39.75
51053;BME280;37093;37.716;-122.060;2023-07-29T04:18:12;99997.51;;;21.52;38.91
51053;BME280;37093;37.716;-122.060;2023-07-29T04:20:41;100002.28;;;21.64;39.10
51053;BME280;37093;37.716;-122.060;2023-07-29T04:23:09;100007.29;;;21.18;40.09
51053;BME280;37093;37.716;-122.060;2023-07-29T04:25:38;100009.46;;;20.88;39.98
51053;BME280;37093;37.716;-122.060;2023-07-29T04:28:06;100008.99;;;21.92;39.06
51053;BME280;37093;37.716;-122.060;2023-07-29T04:30:35;100010.65;;;21.61;39.06
51053;BME280;37093;37.716;-122.060;2023-07-29T04:33:04;100017.27;;;21.19;39.65
51053;BME280;37093;37.716;-122.060;2023-07-29T04:35:32;100019.75;;;22.01;38.94
51053;BME280;37093;37.716;-122.060;2023-07-29T04:38:01;100017.72;;;21.24;39.06
51053;BME280;37093;37.716;-122.060;2023-07-29T04:40:29;100020.60;;;21.63;38.99
51053;BME280;37093;37.716;-122.060;2023-07-29T04:43:01;100019.97;;;21.68;39.37
51053;BME280;37093;37.716;-122.060;2023-07-29T04:45:29;100025.62;;;21.38;39.26
51053;BME280;37093;37.716;-122.060;2023-07-29T04:47:59;100029.23;;;21.58;39.79
51053;BME280;37093;37.716;-122.060;2023-07-29T04:50:26;100030.10;;;21.70;39.44
51053;BME280;37093;37.716;-122.060;2023-07-29T04:52:55;100033.67;;;21.45;40.16
51053;BME280;37093;37.716;-122.060;2023-07-29T04:55:23;100033.01;;;21.67;39.89
51053;BME280;37093;37.716;-122.060;2023-07-29T04:57:52;100034.23;;;21.35;40.00
51053;BME280;37093;37.716;-122.060;2023-07-29T05:00:20;100035.32;;;21.72;39.97
51053;BME280;37093;37.716;-122.060;2023-07-29T05:02:49;100039.65;;;21.29;40.93
51053;BME280;37093;37.716;-122.060;2023-07-29T05:05:17;100038.78;;;21.29;40.62
51053;BME280;37093;37.716;-122.060;2023-07-29T05:07:45;100039.35;;;21.12;41.06
51053;BME280;37093;37.716;-122.060;2023-07-29T05:10:14;100041.02;;;21.45;40.51
51053;BME280;37093;37.716;-122.060;2023-07-29T05:12:42;100042.26;;;21.14;41.29
51053;BME280;37093;37.716;-122.060;2023-07-29T05:15:11;100042.37;;;20.73;42.03
51053;BME280;37093;37.716;-122.060;2023-07-29T05:17:39;100042.81;;;20.79;42.11
51053;BME280;37093;37.716;-122.060;2023-07-29T05:20:08;100045.72;;;20.60;41.91
51053;BME280;37093;37.716;-122.060;2023-07-29T05:22:37;100042.95;;;20.32;42.05
51053;BME280;37093;37.716;-122.060;2023-07-29T05:25:06;100042.50;;;20.20;42.64
51053;BME280;37093;37.716;-122.060;2023-07-29T05:27:34;100038.15;;;20.35;42.91
51053;BME280;37093;37.716;-122.060;2023-07-29T05:30:04;100042.57;;;19.74;44.63
51053;BME280;37093;37.716;-122.060;2023-07-29T05:32:32;100042.84;;;20.07;43.98
51053;BME280;37093;37.716;-122.060;2023-07-29T05:35:01;100044.24;;;20.53;44.06
51053;BME280;37093;37.716;-122.060;2023-07-29T05:37:29;100044.72;;;19.96;43.99
51053;BME280;37093;37.716;-122.060;2023-07-29T05:39:58;100046.07;;;20.17;44.26
51053;BME280;37093;37.716;-122.060;2023-07-29T05:42:26;100052.81;;;19.48;45.86
51053;BME280;37093;37.716;-122.060;2023-07-29T05:44:55;100047.18;;;19.80;44.93
51053;BME280;37093;37.716;-122.060;2023-07-29T05:47:23;100047.90;;;20.06;44.90
51053;BME280;37093;37.716;-122.060;2023-07-29T05:49:52;100048.24;;;20.30;44.37
51053;BME280;37093;37.716;-122.060;2023-07-29T05:52:20;100046.41;;;20.23;43.91
51053;BME280;37093;37.716;-122.060;2023-07-29T05:54:48;100041.89;;;20.35;43.67
51053;BME280;37093;37.716;-122.060;2023-07-29T05:57:17;100042.35;;;20.76;43.83
51053;BME280;37093;37.716;-122.060;2023-07-29T05:59:46;100042.73;;;20.21;44.75
51053;BME280;37093;37.716;-122.060;2023-07-29T06:02:14;100046.45;;;20.58;43.78
51053;BME280;37093;37.716;-122.060;2023-07-29T06:04:43;100041.28;;;20.42;43.74
51053;BME280;37093;37.716;-122.060;2023-07-29T06:07:12;100035.64;;;20.42;44.45
51053;BME280;37093;37.716;-122.060;2023-07-29T06:09:40;100036.35;;;19.97;45.21
51053;BME280;37093;37.716;-122.060;2023-07-29T06:12:09;100031.38;;;20.30;44.75
51053;BME280;37093;37.716;-122.060;2023-07-29T06:14:37;100034.93;;;20.09;45.12
51053;BME280;37093;37.716;-122.060;2023-07-29T06:17:06;100030.59;;;20.64;44.41
51053;BME280;37093;37.716;-122.060;2023-07-29T06:19:34;100031.58;;;19.84;45.31
51053;BME280;37093;37.716;-122.060;2023-07-29T06:22:03;100031.77;;;20.44;44.67
51053;BME280;37093;37.716;-122.060;2023-07-29T06:24:31;100025.29;;;19.80;44.89
51053;BME280;37093;37.716;-122.060;2023-07-29T06:26:59;100025.15;;;20.29;44.94
51053;BME280;37093;37.716;-122.060;2023-07-29T06:29:28;100024.97;;;19.55;45.34
51053;BME280;37093;37.716;-122.060;2023-07-29T06:31:58;100026.93;;;19.24;45.95
51053;BME280;37093;37.716;-122.060;2023-07-29T06:34:26;100029.61;;;19.23;46.83
51053;BME280;37093;37.716;-122.060;2023-07-29T06:36:55;100033.10;;;19.26;47.02
51053;BME280;37093;37.716;-122.060;2023-07-29T06:39:23;100036.86;;;19.21;47.25
51053;BME280;37093;37.716;-122.060;2023-07-29T06:41:51;100038.53;;;19.50;45.95
51053;BME280;37093;37.716;-122.060;2023-07-29T06:44:19;100037.66;;;19.87;45.93
51053;BME280;37093;37.716;-122.060;2023-07-29T06:46:48;100044.56;;;19.66;47.33
51053;BME280;37093;37.716;-122.060;2023-07-29T06:49:16;100045.53;;;19.24;48.58
51053;BME280;37093;37.716;-122.060;2023-07-29T06:51:44;100045.59;;;18.77;49.72
51053;BME280;37093;37.716;-122.060;2023-07-29T06:54:13;100047.51;;;18.43;51.13
51053;BME280;37093;37.716;-122.060;2023-07-29T06:56:41;100049.36;;;18.29;51.30
51053;BME280;37093;37.716;-122.060;2023-07-29T06:59:10;100048.24;;;18.37;51.52
51053;BME280;37093;37.716;-122.060;2023-07-29T07:01:10;100044.29;;;17.63;51.72
51053;BME280;37093;37.716;-122.060;2023-07-29T07:03:39;100046.19;;;16.85;50.57
51053;BME280;37093;37.716;-122.060;2023-07-29T07:06:07;100041.88;;;18.75;47.68
51053;BME280;37093;37.716;-122.060;2023-07-29T07:08:35;100044.54;;;18.94;48.74
51053;BME280;37093;37.716;-122.060;2023-07-29T07:11:04;100048.99;;;18.34;51.27
51053;BME280;37093;37.716;-122.060;2023-07-29T07:13:32;100052.15;;;18.24;51.23
51053;BME280;37093;37.716;-122.060;2023-07-29T07:16:01;100054.95;;;18.70;49.88
51053;BME280;37093;37.716;-122.060;2023-07-29T07:18:29;100049.85;;;18.69;49.65
51053;BME280;37093;37.716;-122.060;2023-07-29T07:20:57;100052.08;;;18.80;48.24
51053;BME280;37093;37.716;-122.060;2023-07-29T07:23:26;100054.49;;;18.96;49.98
51053;BME280;37093;37.716;-122.060;2023-07-29T07:25:54;100056.47;;;18.85;49.19
51053;BME280;37093;37.716;-122.060;2023-07-29T07:28:22;100060.34;;;18.93;48.80
51053;BME280;37093;37.716;-122.060;2023-07-29T07:30:51;100059.90;;;19.08;48.93
51053;BME280;37093;37.716;-122.060;2023-07-29T07:33:19;100059.27;;;19.15;48.41
51053;BME280;37093;37.716;-122.060;2023-07-29T07:35:48;100055.72;;;18.95;49.02
51053;BME280;37093;37.716;-122.060;2023-07-29T07:38:17;100052.54;;;19.00;50.44
51053;BME280;37093;37.716;-122.060;2023-07-29T07:40:53;100054.09;;;18.93;50.12
51053;BME280;37093;37.716;-122.060;2023-07-29T07:43:22;100052.16;;;18.91;50.81
51053;BME280;37093;37.716;-122.060;2023-07-29T07:45:50;100052.92;;;18.34;51.52
51053;BME280;37093;37.716;-122.060;2023-07-29T07:48:19;100053.12;;;18.56;50.36
51053;BME280;37093;37.716;-122.060;2023-07-29T07:50:48;100053.89;;;19.02;49.80
51053;BME280;37093;37.716;-122.060;2023-07-29T07:53:16;100053.53;;;18.88;49.54
51053;BME280;37093;37.716;-122.060;2023-07-29T07:55:44;100048.56;;;18.72;49.69
51053;BME280;37093;37.716;-122.060;2023-07-29T07:58:12;100048.64;;;18.13;50.53
51053;BME280;37093;37.716;-122.060;2023-07-29T08:00:40;100054.03;;;18.13;50.77
51053;BME280;37093;37.716;-122.060;2023-07-29T08:03:09;100056.42;;;18.84;48.93
51053;BME280;37093;37.716;-122.060;2023-07-29T08:05:37;100053.51;;;19.33;48.05
51053;BME280;37093;37.716;-122.060;2023-07-29T08:08:05;100049.12;;;19.18;49.03
51053;BME280;37093;37.716;-122.060;2023-07-29T08:10:33;100051.56;;;19.10;50.98
51053;BME280;37093;37.716;-122.060;2023-07-29T08:13:02;100051.12;;;18.96;50.90
51053;BME280;37093;37.716;-122.060;2023-07-29T08:15:30;100046.69;;;18.21;51.40
51053;BME280;37093;37.716;-122.060;2023-07-29T08:17:58;100039.34;;;18.39;50.87
51053;BME280;37093;37.716;-122.060;2023-07-29T08:20:27;100035.42;;;18.33;52.92
51053;BME280;37093;37.716;-122.060;2023-07-29T08:22:56;100026.72;;;18.12;53.00
51053;BME280;37093;37.716;-122.060;2023-07-29T08:25:24;100028.54;;;17.83;52.46
51053;BME280;37093;37.716;-122.060;2023-07-29T08:27:53;100026.80;;;18.13;53.12
51053;BME280;37093;37.716;-122.060;2023-07-29T08:30:22;100026.35;;;18.46;51.67
51053;BME280;37093;37.716;-122.060;2023-07-29T08:32:50;100022.41;;;18.15;51.44
51053;BME280;37093;37.716;-122.060;2023-07-29T08:35:19;100022.51;;;18.47;51.83
51053;BME280;37093;37.716;-122.060;2023-07-29T08:37:47;100022.65;;;18.47;51.44
51053;BME280;37093;37.716;-122.060;2023-07-29T08:40:16;100020.38;;;18.51;51.23
51053;BME280;37093;37.716;-122.060;2023-07-29T08:42:45;100017.11;;;18.27;50.67
51053;BME280;37093;37.716;-122.060;2023-07-29T08:45:15;100012.47;;;18.46;49.66
51053;BME280;37093;37.716;-122.060;2023-07-29T08:47:44;100012.56;;;19.05;49.02
51053;BME280;37093;37.716;-122.060;2023-07-29T08:50:14;100013.00;;;18.50;49.98
51053;BME280;37093;37.716;-122.060;2023-07-29T08:52:43;100014.28;;;18.29;50.94
51053;BME280;37093;37.716;-122.060;2023-07-29T08:55:12;100015.70;;;18.17;51.47
51053;BME280;37093;37.716;-122.060;2023-07-29T08:57:41;100016.27;;;18.79;49.44
51053;BME280;37093;37.716;-122.060;2023-07-29T09:00:10;100018.18;;;18.58;49.75
51053;BME280;37093;37.716;-122.060;2023-07-29T09:02:38;100017.25;;;19.19;49.11
51053;BME280;37093;37.716;-122.060;2023-07-29T09:05:07;100012.44;;;18.95;49.46
51053;BME280;37093;37.716;-122.060;2023-07-29T09:07:37;100010.98;;;18.77;50.03
51053;BME280;37093;37.716;-122.060;2023-07-29T09:10:09;100007.13;;;18.47;51.31
51053;BME280;37093;37.716;-122.060;2023-07-29T09:12:38;100011.51;;;18.28;52.35
51053;BME280;37093;37.716;-122.060;2023-07-29T09:15:07;100007.09;;;18.38;51.33
51053;BME280;37093;37.716;-122.060;2023-07-29T09:17:35;100001.30;;;18.59;50.62
51053;BME280;37093;37.716;-122.060;2023-07-29T09:20:05;99998.53;;;18.92;49.67
51053;BME280;37093;37.716;-122.060;2023-07-29T09:22:33;99998.76;;;18.79;49.59
51053;BME280;37093;37.716;-122.060;2023-07-29T09:25:02;100001.93;;;18.72;50.09
51053;BME280;37093;37.716;-122.060;2023-07-29T09:27:30;100006.72;;;18.71;51.07
51053;BME280;37093;37.716;-122.060;2023-07-29T09:29:59;100010.90;;;17.85;52.44
51053;BME280;37093;37.716;-122.060;2023-07-29T09:32:27;100015.26;;;18.10;51.73
51053;BME280;37093;37.716;-122.060;2023-07-29T09:34:56;100017.52;;;17.96;51.74
51053;BME280;37093;37.716;-122.060;2023-07-29T09:37:24;100012.06;;;17.96;52.41
51053;BME280;37093;37.716;-122.060;2023-07-29T09:39:53;100014.01;;;17.97;52.28
51053;BME280;37093;37.716;-122.060;2023-07-29T09:42:22;100009.44;;;18.49;50.92
51053;BME280;37093;37.716;-122.060;2023-07-29T09:44:51;100006.86;;;18.39;51.30
51053;BME280;37093;37.716;-122.060;2023-07-29T09:47:21;100005.06;;;18.47;50.52
51053;BME280;37093;37.716;-122.060;2023-07-29T09:49:49;100001.71;;;18.10;52.45
51053;BME280;37093;37.716;-122.060;2023-07-29T09:52:18;100003.40;;;16.91;55.69
51053;BME280;37093;37.716;-122.060;2023-07-29T09:54:47;99998.16;;;17.10;54.16
51053;BME280;37093;37.716;-122.060;2023-07-29T09:57:17;100006.41;;;18.26;52.31
51053;BME280;37093;37.716;-122.060;2023-07-29T09:59:54;100004.57;;;17.79;52.47
51053;BME280;37093;37.716;-122.060;2023-07-29T10:02:24;100007.51;;;17.92;52.19
51053;BME280;37093;37.716;-122.060;2023-07-29T10:04:52;100010.50;;;18.68;50.66
51053;BME280;37093;37.716;-122.060;2023-07-29T10:07:21;100008.41;;;18.02;51.97
51053;BME280;37093;37.716;-122.060;2023-07-29T10:09:51;100007.84;;;18.32;51.72
51053;BME280;37093;37.716;-122.060;2023-07-29T10:12:19;100001.01;;;18.41;51.12
51053;BME280;37093;37.716;-122.060;2023-07-29T10:14:48;100002.12;;;18.01;51.51
51053;BME280;37093;37.716;-122.060;2023-07-29T10:17:17;100001.47;;;17.91;52.46
51053;BME280;37093;37.716;-122.060;2023-07-29T10:19:47;100000.31;;;17.76;52.05
51053;BME280;37093;37.716;-122.060;2023-07-29T10:22:19;99998.51;;;18.10;51.85
51053;BME280;37093;37.716;-122.060;2023-07-29T10:24:49;99996.47;;;18.35;51.43
51053;BME280;37093;37.716;-122.060;2023-07-29T10:27:20;99992.01;;;18.59;50.72
51053;BME280;37093;37.716;-122.060;2023-07-29T10:29:50;99992.87;;;18.14;50.40
51053;BME280;37093;37.716;-122.060;2023-07-29T10:32:21;99993.96;;;18.57;50.35
51053;BME280;37093;37.716;-122.060;2023-07-29T10:34:50;99988.83;;;18.72;50.66
51053;BME280;37093;37.716;-122.060;2023-07-29T10:37:19;99987.02;;;18.58;51.24
51053;BME280;37093;37.716;-122.060;2023-07-29T10:39:54;99995.16;;;18.24;51.70
51053;BME280;37093;37.716;-122.060;2023-07-29T10:42:23;99996.81;;;17.58;51.92
51053;BME280;37093;37.716;-122.060;2023-07-29T10:44:52;100000.70;;;18.11;51.33
51053;BME280;37093;37.716;-122.060;2023-07-29T10:47:23;100003.22;;;18.55;51.01
51053;BME280;37093;37.716;-122.060;2023-07-29T10:49:53;100012.49;;;18.46;51.14
51053;BME280;37093;37.716;-122.060;2023-07-29T10:52:32;100016.76;;;17.62;51.88
51053;BME280;37093;37.716;-122.060;2023-07-29T10:55:26;100023.16;;;18.29;49.70
51053;BME280;37093;37.716;-122.060;2023-07-29T10:58:07;100019.73;;;18.13;51.49
51053;BME280;37093;37.716;-122.060;2023-07-29T11:00:35;100010.55;;;17.74;52.51
51053;BME280;37093;37.716;-122.060;2023-07-29T11:03:06;100008.39;;;17.57;53.29
51053;BME280;37093;37.716;-122.060;2023-07-29T11:05:52;100006.28;;;17.29;54.24
51053;BME280;37093;37.716;-122.060;2023-07-29T11:08:27;100006.20;;;18.32;51.31
51053;BME280;37093;37.716;-122.060;2023-07-29T11:11:03;100005.61;;;17.75;51.71
51053;BME280;37093;37.716;-122.060;2023-07-29T11:13:33;100002.38;;;18.02;51.37
51053;BME280;37093;37.716;-122.060;2023-07-29T11:16:02;100003.96;;;17.96;50.79
51053;BME280;37093;37.716;-122.060;2023-07-29T11:18:32;100000.66;;;16.75;53.57
51053;BME280;37093;37.716;-122.060;2023-07-29T11:21:02;99998.77;;;17.88;52.15
51053;BME280;37093;37.716;-122.060;2023-07-29T11:23:32;99989.88;;;17.76;51.84
51053;BME280;37093;37.716;-122.060;2023-07-29T11:26:00;99986.48;;;17.99;52.22
51053;BME280;37093;37.716;-122.060;2023-07-29T11:28:30;99990.98;;;18.15;50.99
51053;BME280;37093;37.716;-122.060;2023-07-29T11:30:58;99991.62;;;17.04;53.23
51053;BME280;37093;37.716;-122.060;2023-07-29T11:33:28;99990.46;;;17.38;52.80
51053;BME280;37093;37.716;-122.060;2023-07-29T11:35:56;99991.96;;;17.60;52.52
51053;BME280;37093;37.716;-122.060;2023-07-29T11:38:24;99999.18;;;18.01;51.82
51053;BME280;37093;37.716;-122.060;2023-07-29T11:40:58;99998.10;;;18.28;51.13
51053;BME280;37093;37.716;-122.060;2023-07-29T11:43:26;100002.61;;;18.34;50.64
51053;BME280;37093;37.716;-122.060;2023-07-29T11:45:55;100007.15;;;18.19;51.20
51053;BME280;37093;37.716;-122.060;2023-07-29T11:48:32;100002.89;;;18.27;51.56
51053;BME280;37093;37.716;-122.060;2023-07-29T11:51:01;100007.13;;;18.07;51.48
51053;BME280;37093;37.716;-122.060;2023-07-29T11:53:30;100007.39;;;17.56;52.72
51053;BME280;37093;37.716;-122.060;2023-07-29T11:55:59;100001.27;;;17.66;52.56
51053;BME280;37093;37.716;-122.060;2023-07-29T11:58:27;100008.49;;;18.30;51.08
51053;BME280;37093;37.716;-122.060;2023-07-29T12:00:56;100011.41;;;18.26;50.67
51053;BME280;37093;37.716;-122.060;2023-07-29T12:03:26;100009.02;;;18.43;50.66
51053;BME280;37093;37.716;-122.060;2023-07-29T12:05:55;100011.17;;;18.37;50.52
51053;BME280;37093;37.716;-122.060;2023-07-29T12:08:24;100010.72;;;18.31;51.00
51053;BME280;37093;37.716;-122.060;2023-07-29T12:10:53;100007.69;;;17.42;53.06
51053;BME280;37093;37.716;-122.060;2023-07-29T12:13:24;100006.44;;;18.01;51.70
51053;BME280;37093;37.716;-122.060;2023-07-29T12:15:53;100004.78;;;17.42;53.27
51053;BME280;37093;37.716;-122.060;2023-07-29T12:18:30;100014.40;;;17.36;54.67
51053;BME280;37093;37.716;-122.060;2023-07-29T12:20:58;100015.01;;;17.30;53.70
51053;BME280;37093;37.716;-122.060;2023-07-29T12:23:27;100015.50;;;17.61;52.49
51053;BME280;37093;37.716;-122.060;2023-07-29T12:25:58;100016.76;;;17.88;52.25
51053;BME280;37093;37.716;-122.060;2023-07-29T12:28:26;100019.00;;;17.35;52.50
51053;BME280;37093;37.716;-122.060;2023-07-29T12:30:56;100016.75;;;18.10;51.93
51053;BME280;37093;37.716;-122.060;2023-07-29T12:33:33;100015.23;;;17.50;53.27
51053;BME280;37093;37.716;-122.060;2023-07-29T12:36:01;100011.64;;;18.02;52.17